sensor_id;sensor_type;location;lat;lon;timestamp;P1;durP1;ratioP1;P2;durP2;ratioP2
4325;SDS011;58429;49.826;10.880;2023-04-15T00:00:54;6.9;;;3.1;;
4325;SDS011;58429;49.826;10.880;2023-04-15T00:01:54;7.6;;;3.2;;
4325;SDS011;58429;49.826;10.880;2023-04-15T00:02:54;7.6;;;3.2;;
4325;SDS011;58429;49.826;10.880;2023-04-15T00:03:54;7.6;;;3.2;;
4325;SDS011;58429;49.826;10.880;2023-04-15T00:04:54;7.8;;;3.3;;
4325;SDS011;58429;49.826;10.880;2023-04-15T00:05:54;7.8;;;3.3;;
4325;SDS011;58429;49.826;10.880;2023-04-15T00:06:54;7.8;;;3.3;;
4325;SDS011;58429;49.826;10.880;2023-04-15T00:07:54;8.6;;;3.8;;
4325;SDS011;58429;49.826;10.880;2023-04-15T00:08:54;8.6;;;3.8;;
4325;SDS011;58429;49.826;10.880;2023-04-15T00:09:54;8.6;;;3.8;;
4325;SDS011;58429;49.826;10.880;2023-04-15T00:10:54;8.7;;;4.1;;
4325;SDS011;58429;49.826;10.880;2023-04-15T00:11:54;8.7;;;4.1;;
4325;SDS011;58429;49.826;10.880;2023-04-15T00:12:54;8.7;;;4.1;;
4325;SDS011;58429;49.826;10.880;2023-04-15T00:13:54;8.1;;;3.7;;
4325;SDS011;58429;49.826;10.880;2023-04-15T00:14:54;8.1;;;3.7;;
4325;SDS011;58429;49.826;10.880;2023-04-15T00:15:54;8.1;;;3.7;;
4325;SDS011;58429;49.826;10.880;2023-04-15T00:16:54;8.7;;;3.2;;
4325;SDS011;58429;49.826;10.880;2023-04-15T00:17:54;8.7;;;3.2;;
4325;SDS011;58429;49.826;10.880;2023-04-15T00:18:54;8.7;;;3.2;;
4325;SDS011;58429;49.826;10.880;2023-04-15T00:19:54;7.4;;;3.3;;
4325;SDS011;58429;49.826;10.880;2023-04-15T00:20:54;7.4;;;3.3;;
4325;SDS011;58429;49.826;10.880;2023-04-15T00:21:54;7.4;;;3.3;;
4325;SDS011;58429;49.826;10.880;2023-04-15T00:22:54;9.4;;;3.5;;
4325;SDS011;58429;49.826;10.880;2023-04-15T00:23:54;9.4;;;3.5;;
4325;SDS011;58429;49.826;10.880;2023-04-15T00:24:54;9.4;;;3.5;;
4325;SDS011;58429;49.826;10.880;2023-04-15T00:25:54;9.4;;;3.5;;
4325;SDS011;58429;49.826;10.880;2023-04-15T00:26:54;7.9;;;3.2;;
4325;SDS011;58429;49.826;10.880;2023-04-15T00:27:54;7.9;;;3.2;;
4325;SDS011;58429;49.826;10.880;2023-04-15T00:28:54;7.9;;;3.2;;
4325;SDS011;58429;49.826;10.880;2023-04-15T00:29:54;8.2;;;3.3;;
4325;SDS011;58429;49.826;10.880;2023-04-15T00:30:54;8.2;;;3.3;;
4325;SDS011;58429;49.826;10.880;2023-04-15T00:31:54;8.2;;;3.3;;
4325;SDS011;58429;49.826;10.880;2023-04-15T00:32:54;8;;;3;;
4325;SDS011;58429;49.826;10.880;2023-04-15T00:33:54;8;;;3;;
4325;SDS011;58429;49.826;10.880;2023-04-15T00:34:54;8;;;3;;
4325;SDS011;58429;49.826;10.880;2023-04-15T00:35:54;8.4;;;3.3;;
4325;SDS011;58429;49.826;10.880;2023-04-15T00:36:54;8.4;;;3.3;;
4325;SDS011;58429;49.826;10.880;2023-04-15T00:37:54;8.4;;;3.3;;
4325;SDS011;58429;49.826;10.880;2023-04-15T00:38:54;6.8;;;2.7;;
4325;SDS011;58429;49.826;10.880;2023-04-15T00:39:54;6.8;;;2.7;;
4325;SDS011;58429;49.826;10.880;2023-04-15T00:40:54;6.8;;;2.7;;
4325;SDS011;58429;49.826;10.880;2023-04-15T00:41:54;7;;;3.1;;
4325;SDS011;58429;49.826;10.880;2023-04-15T00:42:54;7;;;3.1;;
4325;SDS011;58429;49.826;10.880;2023-04-15T00:43:54;7;;;3.1;;
4325;SDS011;58429;49.826;10.880;2023-04-15T00:44:54;7.4;;;3.1;;
4325;SDS011;58429;49.826;10.880;2023-04-15T00:45:54;7.4;;;3.1;;
4325;SDS011;58429;49.826;10.880;2023-04-15T00:46:54;7.4;;;3.1;;
4325;SDS011;58429;49.826;10.880;2023-04-15T00:47:54;8.2;;;3.2;;
4325;SDS011;58429;49.826;10.880;2023-04-15T00:48:54;8.2;;;3.2;;
4325;SDS011;58429;49.826;10.880;2023-04-15T00:49:54;8.2;;;3.2;;
4325;SDS011;58429;49.826;10.880;2023-04-15T00:50:54;8.5;;;3.2;;
4325;SDS011;58429;49.826;10.880;2023-04-15T00:51:54;8.5;;;3.2;;
4325;SDS011;58429;49.826;10.880;2023-04-15T00:52:54;8.5;;;3.2;;
4325;SDS011;58429;49.826;10.880;2023-04-15T00:53:54;7.9;;;3.4;;
4325;SDS011;58429;49.826;10.880;2023-04-15T00:54:54;7.9;;;3.4;;
4325;SDS011;58429;49.826;10.880;2023-04-15T00:55:54;7.9;;;3.4;;
4325;SDS011;58429;49.826;10.880;2023-04-15T00:56:54;8.6;;;3.8;;
4325;SDS011;58429;49.826;10.880;2023-04-15T00:57:54;8.6;;;3.8;;
4325;SDS011;58429;49.826;10.880;2023-04-15T00:58:54;8.6;;;3.8;;
4325;SDS011;58429;49.826;10.880;2023-04-15T00:59:54;7.4;;;3.3;;
4325;SDS011;58429;49.826;10.880;2023-04-15T01:00:54;7.4;;;3.3;;
4325;SDS011;58429;49.826;10.880;2023-04-15T01:01:54;7.4;;;3.3;;
4325;SDS011;58429;49.826;10.880;2023-04-15T01:02:54;7.8;;;3.3;;
4325;SDS011;58429;49.826;10.880;2023-04-15T01:03:54;7.8;;;3.3;;
4325;SDS011;58429;49.826;10.880;2023-04-15T01:04:54;7.8;;;3.3;;
4325;SDS011;58429;49.826;10.880;2023-04-15T01:05:54;7;;;2.8;;
4325;SDS011;58429;49.826;10.880;2023-04-15T01:06:54;7;;;2.8;;
4325;SDS011;58429;49.826;10.880;2023-04-15T01:07:54;7;;;2.8;;
4325;SDS011;58429;49.826;10.880;2023-04-15T01:08:54;9.3;;;3.3;;
4325;SDS011;58429;49.826;10.880;2023-04-15T01:09:54;9.3;;;3.3;;
4325;SDS011;58429;49.826;10.880;2023-04-15T01:10:54;9.3;;;3.3;;
4325;SDS011;58429;49.826;10.880;2023-04-15T01:11:54;7.3;;;2.9;;
4325;SDS011;58429;49.826;10.880;2023-04-15T01:12:54;7.3;;;2.9;;
4325;SDS011;58429;49.826;10.880;2023-04-15T01:13:54;7.3;;;2.9;;
4325;SDS011;58429;49.826;10.880;2023-04-15T01:14:54;7.8;;;3.2;;
4325;SDS011;58429;49.826;10.880;2023-04-15T01:15:54;7.8;;;3.2;;
4325;SDS011;58429;49.826;10.880;2023-04-15T01:16:54;7.8;;;3.2;;
4325;SDS011;58429;49.826;10.880;2023-04-15T01:17:54;8.2;;;3.1;;
4325;SDS011;58429;49.826;10.880;2023-04-15T01:18:54;8.2;;;3.1;;
4325;SDS011;58429;49.826;10.880;2023-04-15T01:19:54;8.2;;;3.1;;
4325;SDS011;58429;49.826;10.880;2023-04-15T01:20:54;7.1;;;2.8;;
4325;SDS011;58429;49.826;10.880;2023-04-15T01:21:55;7.1;;;2.8;;
4325;SDS011;58429;49.826;10.880;2023-04-15T01:22:54;7.1;;;2.8;;
4325;SDS011;58429;49.826;10.880;2023-04-15T01:23:54;7.6;;;3.2;;
4325;SDS011;58429;49.826;10.880;2023-04-15T01:24:55;7.6;;;3.2;;
4325;SDS011;58429;49.826;10.880;2023-04-15T01:25:54;7.6;;;3.2;;
4325;SDS011;58429;49.826;10.880;2023-04-15T01:26:54;6.9;;;2.8;;
4325;SDS011;58429;49.826;10.880;2023-04-15T01:27:54;6.9;;;2.8;;
4325;SDS011;58429;49.826;10.880;2023-04-15T01:28:54;6.9;;;2.8;;
4325;SDS011;58429;49.826;10.880;2023-04-15T01:29:54;7.8;;;3;;
4325;SDS011;58429;49.826;10.880;2023-04-15T01:31:04;7.8;;;3;;
4325;SDS011;58429;49.826;10.880;2023-04-15T01:31:54;7.8;;;3;;
4325;SDS011;58429;49.826;10.880;2023-04-15T01:32:54;7.3;;;3.1;;
4325;SDS011;58429;49.826;10.880;2023-04-15T01:33:54;7.3;;;3.1;;
4325;SDS011;58429;49.826;10.880;2023-04-15T01:34:54;7.3;;;3.1;;
4325;SDS011;58429;49.826;10.880;2023-04-15T01:35:54;7.6;;;3.1;;
4325;SDS011;58429;49.826;10.880;2023-04-15T01:36:54;7.6;;;3.1;;
4325;SDS011;58429;49.826;10.880;2023-04-15T01:37:54;7.6;;;3.1;;
4325;SDS011;58429;49.826;10.880;2023-04-15T01:38:54;7.7;;;2.9;;
4325;SDS011;58429;49.826;10.880;2023-04-15T01:39:54;7.7;;;2.9;;
4325;SDS011;58429;49.826;10.880;2023-04-15T01:40:54;7.7;;;2.9;;
4325;SDS011;58429;49.826;10.880;2023-04-15T01:41:54;7.5;;;3;;
4325;SDS011;58429;49.826;10.880;2023-04-15T01:42:54;7.5;;;3;;
4325;SDS011;58429;49.826;10.880;2023-04-15T01:43:54;7.5;;;3;;
4325;SDS011;58429;49.826;10.880;2023-04-15T01:44:54;7.6;;;3.1;;
4325;SDS011;58429;49.826;10.880;2023-04-15T01:45:54;7.6;;;3.1;;
4325;SDS011;58429;49.826;10.880;2023-04-15T01:46:54;7.6;;;3.1;;
4325;SDS011;58429;49.826;10.880;2023-04-15T01:47:54;6.8;;;2.8;;
4325;SDS011;58429;49.826;10.880;2023-04-15T01:48:54;6.8;;;2.8;;
4325;SDS011;58429;49.826;10.880;2023-04-15T01:49:54;6.8;;;2.8;;
4325;SDS011;58429;49.826;10.880;2023-04-15T01:50:54;8;;;3;;
4325;SDS011;58429;49.826;10.880;2023-04-15T01:51:54;8;;;3;;
4325;SDS011;58429;49.826;10.880;2023-04-15T01:52:54;8;;;3;;
4325;SDS011;58429;49.826;10.880;2023-04-15T01:53:54;7.6;;;3.1;;
4325;SDS011;58429;49.826;10.880;2023-04-15T01:54:54;7.6;;;3.1;;
4325;SDS011;58429;49.826;10.880;2023-04-15T01:55:54;7.6;;;3.1;;
4325;SDS011;58429;49.826;10.880;2023-04-15T01:56:54;8.2;;;3;;
4325;SDS011;58429;49.826;10.880;2023-04-15T01:57:54;8.2;;;3;;
4325;SDS011;58429;49.826;10.880;2023-04-15T01:58:54;8.2;;;3;;
4325;SDS011;58429;49.826;10.880;2023-04-15T01:59:54;7.5;;;2.8;;
4325;SDS011;58429;49.826;10.880;2023-04-15T02:00:54;7.5;;;2.8;;
4325;SDS011;58429;49.826;10.880;2023-04-15T02:01:54;7.5;;;2.8;;
4325;SDS011;58429;49.826;10.880;2023-04-15T02:02:54;7.1;;;2.6;;
4325;SDS011;58429;49.826;10.880;2023-04-15T02:03:54;7.1;;;2.6;;
4325;SDS011;58429;49.826;10.880;2023-04-15T02:04:54;7.1;;;2.6;;
4325;SDS011;58429;49.826;10.880;2023-04-15T02:05:54;8.2;;;2.8;;
4325;SDS011;58429;49.826;10.880;2023-04-15T02:06:54;8.2;;;2.8;;
4325;SDS011;58429;49.826;10.880;2023-04-15T02:07:54;8.2;;;2.8;;
4325;SDS011;58429;49.826;10.880;2023-04-15T02:08:54;7.4;;;2.8;;
4325;SDS011;58429;49.826;10.880;2023-04-15T02:09:54;7.4;;;2.8;;
4325;SDS011;58429;49.826;10.880;2023-04-15T02:10:54;7.4;;;2.8;;
4325;SDS011;58429;49.826;10.880;2023-04-15T02:11:54;8.1;;;3.1;;
4325;SDS011;58429;49.826;10.880;2023-04-15T02:12:54;8.1;;;3.1;;
4325;SDS011;58429;49.826;10.880;2023-04-15T02:13:54;8.1;;;3.1;;
4325;SDS011;58429;49.826;10.880;2023-04-15T02:14:54;8.1;;;3.1;;
4325;SDS011;58429;49.826;10.880;2023-04-15T02:15:54;7.1;;;3;;
4325;SDS011;58429;49.826;10.880;2023-04-15T02:16:54;7.1;;;3;;
4325;SDS011;58429;49.826;10.880;2023-04-15T02:17:54;7.1;;;3;;
4325;SDS011;58429;49.826;10.880;2023-04-15T02:18:54;7.9;;;3.2;;
4325;SDS011;58429;49.826;10.880;2023-04-15T02:19:54;7.9;;;3.2;;
4325;SDS011;58429;49.826;10.880;2023-04-15T02:20:54;7.9;;;3.2;;
4325;SDS011;58429;49.826;10.880;2023-04-15T02:21:54;8.8;;;3.6;;
4325;SDS011;58429;49.826;10.880;2023-04-15T02:22:54;8.8;;;3.6;;
4325;SDS011;58429;49.826;10.880;2023-04-15T02:23:54;8.8;;;3.6;;
4325;SDS011;58429;49.826;10.880;2023-04-15T02:24:54;7.8;;;3.2;;
4325;SDS011;58429;49.826;10.880;2023-04-15T02:25:54;7.8;;;3.2;;
4325;SDS011;58429;49.826;10.880;2023-04-15T02:26:54;7.8;;;3.2;;
4325;SDS011;58429;49.826;10.880;2023-04-15T02:27:56;8.3;;;3.4;;
4325;SDS011;58429;49.826;10.880;2023-04-15T02:28:54;8.3;;;3.4;;
4325;SDS011;58429;49.826;10.880;2023-04-15T02:29:54;8.3;;;3.4;;
4325;SDS011;58429;49.826;10.880;2023-04-15T02:30:54;7.1;;;2.9;;
4325;SDS011;58429;49.826;10.880;2023-04-15T02:31:54;7.1;;;2.9;;
4325;SDS011;58429;49.826;10.880;2023-04-15T02:32:54;7.1;;;2.9;;
4325;SDS011;58429;49.826;10.880;2023-04-15T02:33:54;7.9;;;2.9;;
4325;SDS011;58429;49.826;10.880;2023-04-15T02:34:54;7.9;;;2.9;;
4325;SDS011;58429;49.826;10.880;2023-04-15T02:35:54;7.9;;;2.9;;
4325;SDS011;58429;49.826;10.880;2023-04-15T02:36:54;7.8;;;3.2;;
4325;SDS011;58429;49.826;10.880;2023-04-15T02:37:54;7.8;;;3.2;;
4325;SDS011;58429;49.826;10.880;2023-04-15T02:38:54;7.8;;;3.2;;
4325;SDS011;58429;49.826;10.880;2023-04-15T02:39:54;9.7;;;3.2;;
4325;SDS011;58429;49.826;10.880;2023-04-15T02:40:54;9.7;;;3.2;;
4325;SDS011;58429;49.826;10.880;2023-04-15T02:41:54;9.7;;;3.2;;
4325;SDS011;58429;49.826;10.880;2023-04-15T02:42:54;6.9;;;2.8;;
4325;SDS011;58429;49.826;10.880;2023-04-15T02:43:54;6.9;;;2.8;;
4325;SDS011;58429;49.826;10.880;2023-04-15T02:44:54;6.9;;;2.8;;
4325;SDS011;58429;49.826;10.880;2023-04-15T02:45:54;7.4;;;3;;
4325;SDS011;58429;49.826;10.880;2023-04-15T02:46:54;7.4;;;3;;
4325;SDS011;58429;49.826;10.880;2023-04-15T02:47:54;7.4;;;3;;
4325;SDS011;58429;49.826;10.880;2023-04-15T02:48:54;9.2;;;3.2;;
4325;SDS011;58429;49.826;10.880;2023-04-15T02:49:54;9.2;;;3.2;;
4325;SDS011;58429;49.826;10.880;2023-04-15T02:51:09;9.2;;;3.2;;
4325;SDS011;58429;49.826;10.880;2023-04-15T02:51:54;8.5;;;3.4;;
4325;SDS011;58429;49.826;10.880;2023-04-15T02:52:54;8.5;;;3.4;;
4325;SDS011;58429;49.826;10.880;2023-04-15T02:53:54;8.5;;;3.4;;
4325;SDS011;58429;49.826;10.880;2023-04-15T02:54:54;8.4;;;3.6;;
4325;SDS011;58429;49.826;10.880;2023-04-15T02:55:54;8.4;;;3.6;;
4325;SDS011;58429;49.826;10.880;2023-04-15T02:56:54;8.4;;;3.6;;
4325;SDS011;58429;49.826;10.880;2023-04-15T02:57:54;7.8;;;3.3;;
4325;SDS011;58429;49.826;10.880;2023-04-15T02:58:54;7.8;;;3.3;;
4325;SDS011;58429;49.826;10.880;2023-04-15T02:59:54;7.8;;;3.3;;
4325;SDS011;58429;49.826;10.880;2023-04-15T03:00:54;8;;;3;;
4325;SDS011;58429;49.826;10.880;2023-04-15T03:01:54;8;;;3;;
4325;SDS011;58429;49.826;10.880;2023-04-15T03:02:56;8;;;3;;
4325;SDS011;58429;49.826;10.880;2023-04-15T03:03:54;8.3;;;3.5;;
4325;SDS011;58429;49.826;10.880;2023-04-15T03:04:54;8.3;;;3.5;;
4325;SDS011;58429;49.826;10.880;2023-04-15T03:05:54;8.3;;;3.5;;
4325;SDS011;58429;49.826;10.880;2023-04-15T03:06:54;7.8;;;3;;
4325;SDS011;58429;49.826;10.880;2023-04-15T03:07:54;7.8;;;3;;
4325;SDS011;58429;49.826;10.880;2023-04-15T03:08:54;7.8;;;3;;
4325;SDS011;58429;49.826;10.880;2023-04-15T03:09:54;7.3;;;3;;
4325;SDS011;58429;49.826;10.880;2023-04-15T03:10:54;7.3;;;3;;
4325;SDS011;58429;49.826;10.880;2023-04-15T03:11:54;7.3;;;3;;
4325;SDS011;58429;49.826;10.880;2023-04-15T03:12:54;7.5;;;3.2;;
4325;SDS011;58429;49.826;10.880;2023-04-15T03:13:54;7.5;;;3.2;;
4325;SDS011;58429;49.826;10.880;2023-04-15T03:14:54;7.5;;;3.2;;
4325;SDS011;58429;49.826;10.880;2023-04-15T03:15:54;7.1;;;2.9;;
4325;SDS011;58429;49.826;10.880;2023-04-15T03:16:54;7.1;;;2.9;;
4325;SDS011;58429;49.826;10.880;2023-04-15T03:17:54;7.1;;;2.9;;
4325;SDS011;58429;49.826;10.880;2023-04-15T03:18:54;7.8;;;3.2;;
4325;SDS011;58429;49.826;10.880;2023-04-15T03:19:54;7.8;;;3.2;;
4325;SDS011;58429;49.826;10.880;2023-04-15T03:20:54;7.8;;;3.2;;
4325;SDS011;58429;49.826;10.880;2023-04-15T03:21:54;7.5;;;3.1;;
4325;SDS011;58429;49.826;10.880;2023-04-15T03:22:54;7.5;;;3.1;;
4325;SDS011;58429;49.826;10.880;2023-04-15T03:23:54;7.5;;;3.1;;
4325;SDS011;58429;49.826;10.880;2023-04-15T03:24:54;7.7;;;3.2;;
4325;SDS011;58429;49.826;10.880;2023-04-15T03:25:55;7.7;;;3.2;;
4325;SDS011;58429;49.826;10.880;2023-04-15T03:26:54;7.7;;;3.2;;
4325;SDS011;58429;49.826;10.880;2023-04-15T03:27:54;8.7;;;3.5;;
4325;SDS011;58429;49.826;10.880;2023-04-15T03:28:55;8.7;;;3.5;;
4325;SDS011;58429;49.826;10.880;2023-04-15T03:29:54;8.7;;;3.5;;
4325;SDS011;58429;49.826;10.880;2023-04-15T03:30:54;7.9;;;3;;
4325;SDS011;58429;49.826;10.880;2023-04-15T03:31:54;7.9;;;3;;
4325;SDS011;58429;49.826;10.880;2023-04-15T03:32:54;7.9;;;3;;
4325;SDS011;58429;49.826;10.880;2023-04-15T03:33:54;7.4;;;3.2;;
4325;SDS011;58429;49.826;10.880;2023-04-15T03:34:54;7.4;;;3.2;;
4325;SDS011;58429;49.826;10.880;2023-04-15T03:35:54;7.4;;;3.2;;
4325;SDS011;58429;49.826;10.880;2023-04-15T03:36:54;8.1;;;3.2;;
4325;SDS011;58429;49.826;10.880;2023-04-15T03:37:54;8.1;;;3.2;;
4325;SDS011;58429;49.826;10.880;2023-04-15T03:38:54;8.1;;;3.2;;
4325;SDS011;58429;49.826;10.880;2023-04-15T03:39:54;8.2;;;3.1;;
4325;SDS011;58429;49.826;10.880;2023-04-15T03:40:54;8.2;;;3.1;;
4325;SDS011;58429;49.826;10.880;2023-04-15T03:41:54;8.2;;;3.1;;
4325;SDS011;58429;49.826;10.880;2023-04-15T03:42:54;7.8;;;3.2;;
4325;SDS011;58429;49.826;10.880;2023-04-15T03:43:54;7.8;;;3.2;;
4325;SDS011;58429;49.826;10.880;2023-04-15T03:44:54;7.8;;;3.2;;
4325;SDS011;58429;49.826;10.880;2023-04-15T03:45:54;7.4;;;3;;
4325;SDS011;58429;49.826;10.880;2023-04-15T03:46:54;7.4;;;3;;
4325;SDS011;58429;49.826;10.880;2023-04-15T03:47:54;7.4;;;3;;
4325;SDS011;58429;49.826;10.880;2023-04-15T03:48:54;7.8;;;3;;
4325;SDS011;58429;49.826;10.880;2023-04-15T03:49:54;7.8;;;3;;
4325;SDS011;58429;49.826;10.880;2023-04-15T03:50:54;7.8;;;3;;
4325;SDS011;58429;49.826;10.880;2023-04-15T03:51:54;7.8;;;3.1;;
4325;SDS011;58429;49.826;10.880;2023-04-15T03:52:54;7.8;;;3.1;;
4325;SDS011;58429;49.826;10.880;2023-04-15T03:53:54;7.8;;;3.1;;
4325;SDS011;58429;49.826;10.880;2023-04-15T03:54:54;8.4;;;3.3;;
4325;SDS011;58429;49.826;10.880;2023-04-15T03:55:54;8.4;;;3.3;;
4325;SDS011;58429;49.826;10.880;2023-04-15T03:56:54;8.4;;;3.3;;
4325;SDS011;58429;49.826;10.880;2023-04-15T03:57:54;7.9;;;3.2;;
4325;SDS011;58429;49.826;10.880;2023-04-15T03:58:54;7.9;;;3.2;;
4325;SDS011;58429;49.826;10.880;2023-04-15T03:59:54;7.9;;;3.2;;
4325;SDS011;58429;49.826;10.880;2023-04-15T04:00:54;7.5;;;3;;
4325;SDS011;58429;49.826;10.880;2023-04-15T04:01:54;7.5;;;3;;
4325;SDS011;58429;49.826;10.880;2023-04-15T04:02:54;7.5;;;3;;
4325;SDS011;58429;49.826;10.880;2023-04-15T04:03:54;7.5;;;3;;
4325;SDS011;58429;49.826;10.880;2023-04-15T04:04:54;7.3;;;2.9;;
4325;SDS011;58429;49.826;10.880;2023-04-15T04:05:54;7.3;;;2.9;;
4325;SDS011;58429;49.826;10.880;2023-04-15T04:06:54;7.3;;;2.9;;
4325;SDS011;58429;49.826;10.880;2023-04-15T04:07:54;7.2;;;3;;
4325;SDS011;58429;49.826;10.880;2023-04-15T04:08:54;7.2;;;3;;
4325;SDS011;58429;49.826;10.880;2023-04-15T04:09:55;7.2;;;3;;
4325;SDS011;58429;49.826;10.880;2023-04-15T04:10:54;7.2;;;2.8;;
4325;SDS011;58429;49.826;10.880;2023-04-15T04:11:54;7.2;;;2.8;;
4325;SDS011;58429;49.826;10.880;2023-04-15T04:12:54;7.2;;;2.8;;
4325;SDS011;58429;49.826;10.880;2023-04-15T04:13:54;8.8;;;3.3;;
4325;SDS011;58429;49.826;10.880;2023-04-15T04:14:54;8.8;;;3.3;;
4325;SDS011;58429;49.826;10.880;2023-04-15T04:15:54;8.8;;;3.3;;
4325;SDS011;58429;49.826;10.880;2023-04-15T04:16:54;6.9;;;3;;
4325;SDS011;58429;49.826;10.880;2023-04-15T04:17:54;6.9;;;3;;
4325;SDS011;58429;49.826;10.880;2023-04-15T04:18:54;6.9;;;3;;
4325;SDS011;58429;49.826;10.880;2023-04-15T04:19:54;7.6;;;3;;
4325;SDS011;58429;49.826;10.880;2023-04-15T04:20:54;7.6;;;3;;
4325;SDS011;58429;49.826;10.880;2023-04-15T04:21:54;7.6;;;3;;
4325;SDS011;58429;49.826;10.880;2023-04-15T04:22:54;8.1;;;3.5;;
4325;SDS011;58429;49.826;10.880;2023-04-15T04:23:54;8.1;;;3.5;;
4325;SDS011;58429;49.826;10.880;2023-04-15T04:24:54;8.1;;;3.5;;
4325;SDS011;58429;49.826;10.880;2023-04-15T04:25:54;7.7;;;3.3;;
4325;SDS011;58429;49.826;10.880;2023-04-15T04:26:54;7.7;;;3.3;;
4325;SDS011;58429;49.826;10.880;2023-04-15T04:27:54;7.7;;;3.3;;
4325;SDS011;58429;49.826;10.880;2023-04-15T04:28:54;8.1;;;3.7;;
4325;SDS011;58429;49.826;10.880;2023-04-15T04:29:54;8.1;;;3.7;;
4325;SDS011;58429;49.826;10.880;2023-04-15T04:30:54;8.1;;;3.7;;
4325;SDS011;58429;49.826;10.880;2023-04-15T04:31:54;7.7;;;3.7;;
4325;SDS011;58429;49.826;10.880;2023-04-15T04:32:54;7.7;;;3.7;;
4325;SDS011;58429;49.826;10.880;2023-04-15T04:33:54;7.7;;;3.7;;
4325;SDS011;58429;49.826;10.880;2023-04-15T04:34:54;9.9;;;4.1;;
4325;SDS011;58429;49.826;10.880;2023-04-15T04:35:54;9.9;;;4.1;;
4325;SDS011;58429;49.826;10.880;2023-04-15T04:36:55;9.9;;;4.1;;
4325;SDS011;58429;49.826;10.880;2023-04-15T04:37:54;9.9;;;3.9;;
4325;SDS011;58429;49.826;10.880;2023-04-15T04:38:55;9.9;;;3.9;;
4325;SDS011;58429;49.826;10.880;2023-04-15T04:39:54;9.9;;;3.9;;
4325;SDS011;58429;49.826;10.880;2023-04-15T04:40:55;8.8;;;3.9;;
4325;SDS011;58429;49.826;10.880;2023-04-15T04:41:54;8.8;;;3.9;;
4325;SDS011;58429;49.826;10.880;2023-04-15T04:42:54;8.8;;;3.9;;
4325;SDS011;58429;49.826;10.880;2023-04-15T04:43:54;9.1;;;3.8;;
4325;SDS011;58429;49.826;10.880;2023-04-15T04:44:54;9.1;;;3.8;;
4325;SDS011;58429;49.826;10.880;2023-04-15T04:45:54;9.1;;;3.8;;
4325;SDS011;58429;49.826;10.880;2023-04-15T04:46:55;8.3;;;3.9;;
4325;SDS011;58429;49.826;10.880;2023-04-15T04:47:54;8.3;;;3.9;;
4325;SDS011;58429;49.826;10.880;2023-04-15T04:48:54;8.3;;;3.9;;
4325;SDS011;58429;49.826;10.880;2023-04-15T04:49:55;9.1;;;4.2;;
4325;SDS011;58429;49.826;10.880;2023-04-15T04:50:54;9.1;;;4.2;;
4325;SDS011;58429;49.826;10.880;2023-04-15T04:51:54;9.1;;;4.2;;
4325;SDS011;58429;49.826;10.880;2023-04-15T04:52:55;8.7;;;3.9;;
4325;SDS011;58429;49.826;10.880;2023-04-15T04:53:54;8.7;;;3.9;;
4325;SDS011;58429;49.826;10.880;2023-04-15T04:54:55;8.7;;;3.9;;
4325;SDS011;58429;49.826;10.880;2023-04-15T04:55:55;9.2;;;4.2;;
4325;SDS011;58429;49.826;10.880;2023-04-15T04:56:55;9.2;;;4.2;;
4325;SDS011;58429;49.826;10.880;2023-04-15T04:57:54;9.2;;;4.2;;
4325;SDS011;58429;49.826;10.880;2023-04-15T04:58:54;9.4;;;4;;
4325;SDS011;58429;49.826;10.880;2023-04-15T04:59:55;9.4;;;4;;
4325;SDS011;58429;49.826;10.880;2023-04-15T05:00:55;9.4;;;4;;
4325;SDS011;58429;49.826;10.880;2023-04-15T05:01:54;9.6;;;4.5;;
4325;SDS011;58429;49.826;10.880;2023-04-15T05:02:54;9.6;;;4.5;;
4325;SDS011;58429;49.826;10.880;2023-04-15T05:03:54;9.6;;;4.5;;
4325;SDS011;58429;49.826;10.880;2023-04-15T05:04:55;11.3;;;4.3;;
4325;SDS011;58429;49.826;10.880;2023-04-15T05:05:54;11.3;;;4.3;;
4325;SDS011;58429;49.826;10.880;2023-04-15T05:06:54;11.3;;;4.3;;
4325;SDS011;58429;49.826;10.880;2023-04-15T05:07:54;9.8;;;4.3;;
4325;SDS011;58429;49.826;10.880;2023-04-15T05:08:55;9.8;;;4.3;;
4325;SDS011;58429;49.826;10.880;2023-04-15T05:09:54;9.8;;;4.3;;
4325;SDS011;58429;49.826;10.880;2023-04-15T05:10:54;11.9;;;4.5;;
4325;SDS011;58429;49.826;10.880;2023-04-15T05:11:54;11.9;;;4.5;;
4325;SDS011;58429;49.826;10.880;2023-04-15T05:12:55;11.9;;;4.5;;
4325;SDS011;58429;49.826;10.880;2023-04-15T05:13:55;9.7;;;4.7;;
4325;SDS011;58429;49.826;10.880;2023-04-15T05:14:54;9.7;;;4.7;;
4325;SDS011;58429;49.826;10.880;2023-04-15T05:15:55;9.7;;;4.7;;
4325;SDS011;58429;49.826;10.880;2023-04-15T05:16:55;8.3;;;4;;
4325;SDS011;58429;49.826;10.880;2023-04-15T05:17:55;8.3;;;4;;
4325;SDS011;58429;49.826;10.880;2023-04-15T05:18:55;8.3;;;4;;
4325;SDS011;58429;49.826;10.880;2023-04-15T05:19:55;9;;;4.6;;
4325;SDS011;58429;49.826;10.880;2023-04-15T05:20:55;9;;;4.6;;
4325;SDS011;58429;49.826;10.880;2023-04-15T05:21:55;9;;;4.6;;
4325;SDS011;58429;49.826;10.880;2023-04-15T05:22:55;9.1;;;4;;
4325;SDS011;58429;49.826;10.880;2023-04-15T05:23:55;9.1;;;4;;
4325;SDS011;58429;49.826;10.880;2023-04-15T05:24:55;9.1;;;4;;
4325;SDS011;58429;49.826;10.880;2023-04-15T05:25:55;11.1;;;4.8;;
4325;SDS011;58429;49.826;10.880;2023-04-15T05:26:55;11.1;;;4.8;;
4325;SDS011;58429;49.826;10.880;2023-04-15T05:27:55;11.1;;;4.8;;
4325;SDS011;58429;49.826;10.880;2023-04-15T05:28:55;10.7;;;5.1;;
4325;SDS011;58429;49.826;10.880;2023-04-15T05:29:55;10.7;;;5.1;;
4325;SDS011;58429;49.826;10.880;2023-04-15T05:30:55;10.7;;;5.1;;
4325;SDS011;58429;49.826;10.880;2023-04-15T05:31:55;9.7;;;4.6;;
4325;SDS011;58429;49.826;10.880;2023-04-15T05:32:55;9.7;;;4.6;;
4325;SDS011;58429;49.826;10.880;2023-04-15T05:33:55;9.7;;;4.6;;
4325;SDS011;58429;49.826;10.880;2023-04-15T05:34:55;10.6;;;5.3;;
4325;SDS011;58429;49.826;10.880;2023-04-15T05:35:55;10.6;;;5.3;;
4325;SDS011;58429;49.826;10.880;2023-04-15T05:36:55;10.6;;;5.3;;
4325;SDS011;58429;49.826;10.880;2023-04-15T05:37:55;10.5;;;5.4;;
4325;SDS011;58429;49.826;10.880;2023-04-15T05:38:55;10.5;;;5.4;;
4325;SDS011;58429;49.826;10.880;2023-04-15T05:39:55;10.5;;;5.4;;
4325;SDS011;58429;49.826;10.880;2023-04-15T05:40:55;10.7;;;5.5;;
4325;SDS011;58429;49.826;10.880;2023-04-15T05:41:55;10.7;;;5.5;;
4325;SDS011;58429;49.826;10.880;2023-04-15T05:42:55;10.7;;;5.5;;
4325;SDS011;58429;49.826;10.880;2023-04-15T05:43:55;11;;;5.1;;
4325;SDS011;58429;49.826;10.880;2023-04-15T05:44:55;11;;;5.1;;
4325;SDS011;58429;49.826;10.880;2023-04-15T05:45:55;11;;;5.1;;
4325;SDS011;58429;49.826;10.880;2023-04-15T05:46:55;9.8;;;5.3;;
4325;SDS011;58429;49.826;10.880;2023-04-15T05:47:55;9.8;;;5.3;;
4325;SDS011;58429;49.826;10.880;2023-04-15T05:48:55;9.8;;;5.3;;
4325;SDS011;58429;49.826;10.880;2023-04-15T05:49:55;11.6;;;5.7;;
4325;SDS011;58429;49.826;10.880;2023-04-15T05:50:55;11.6;;;5.7;;
4325;SDS011;58429;49.826;10.880;2023-04-15T05:51:55;11.6;;;5.7;;
4325;SDS011;58429;49.826;10.880;2023-04-15T05:52:55;11.6;;;5.7;;
4325;SDS011;58429;49.826;10.880;2023-04-15T05:53:55;10.6;;;5.2;;
4325;SDS011;58429;49.826;10.880;2023-04-15T05:54:55;10.6;;;5.2;;
4325;SDS011;58429;49.826;10.880;2023-04-15T05:55:55;10.6;;;5.2;;
4325;SDS011;58429;49.826;10.880;2023-04-15T05:56:55;10.3;;;5.3;;
4325;SDS011;58429;49.826;10.880;2023-04-15T05:57:55;10.3;;;5.3;;
4325;SDS011;58429;49.826;10.880;2023-04-15T05:58:55;10.3;;;5.3;;
4325;SDS011;58429;49.826;10.880;2023-04-15T05:59:55;10.8;;;5.5;;
4325;SDS011;58429;49.826;10.880;2023-04-15T06:00:55;10.8;;;5.5;;
4325;SDS011;58429;49.826;10.880;2023-04-15T06:01:55;10.8;;;5.5;;
4325;SDS011;58429;49.826;10.880;2023-04-15T06:02:55;12.5;;;6.2;;
4325;SDS011;58429;49.826;10.880;2023-04-15T06:03:55;12.5;;;6.2;;
4325;SDS011;58429;49.826;10.880;2023-04-15T06:04:55;12.5;;;6.2;;
4325;SDS011;58429;49.826;10.880;2023-04-15T06:05:55;13.9;;;6.1;;
4325;SDS011;58429;49.826;10.880;2023-04-15T06:06:55;13.9;;;6.1;;
4325;SDS011;58429;49.826;10.880;2023-04-15T06:07:55;13.9;;;6.1;;
4325;SDS011;58429;49.826;10.880;2023-04-15T06:08:55;11;;;6.3;;
4325;SDS011;58429;49.826;10.880;2023-04-15T06:09:55;11;;;6.3;;
4325;SDS011;58429;49.826;10.880;2023-04-15T06:10:55;11;;;6.3;;
4325;SDS011;58429;49.826;10.880;2023-04-15T06:11:55;11.8;;;6.2;;
4325;SDS011;58429;49.826;10.880;2023-04-15T06:12:55;11.8;;;6.2;;
4325;SDS011;58429;49.826;10.880;2023-04-15T06:13:55;11.8;;;6.2;;
4325;SDS011;58429;49.826;10.880;2023-04-15T06:14:55;13.3;;;6.8;;